sensor_id;sensor_type;location;lat;lon;timestamp;pressure;altitude;pressure_sealevel;temperature;humidity
3122;BME280;1571;52.524;14.104;2023-11-19T00:00:20;101121.72;;;3.54;99.98
3122;BME280;1571;52.524;14.104;2023-11-19T00:02:48;101113.75;;;3.58;100.00
3122;BME280;1571;52.524;14.104;2023-11-19T00:05:18;101106.81;;;3.57;99.87
3122;BME280;1571;52.524;14.104;2023-11-19T00:07:47;101108.19;;;3.70;100.00
3122;BME280;1571;52.524;14.104;2023-11-19T00:10:16;101106.66;;;3.63;100.00
3122;BME280;1571;52.524;14.104;2023-11-19T00:12:48;101096.88;;;3.68;100.00
3122;BME280;1571;52.524;14.104;2023-11-19T00:15:17;101094.63;;;3.54;100.00
3122;BME280;1571;52.524;14.104;2023-11-19T00:17:47;101076.41;;;3.48;100.00
3122;BME280;1571;52.524;14.104;2023-11-19T00:20:19;101077.09;;;3.54;100.00
3122;BME280;1571;52.524;14.104;2023-11-19T00:22:49;101064.84;;;3.55;100.00
3122;BME280;1571;52.524;14.104;2023-11-19T00:25:20;101067.53;;;3.53;100.00
3122;BME280;1571;52.524;14.104;2023-11-19T00:27:49;101054.41;;;3.53;100.00
3122;BME280;1571;52.524;14.104;2023-11-19T00:30:19;101039.63;;;3.49;100.00
3122;BME280;1571;52.524;14.104;2023-11-19T00:32:47;101038.66;;;3.53;100.00
3122;BME280;1571;52.524;14.104;2023-11-19T00:35:15;101050.03;;;3.52;100.00
3122;BME280;1571;52.524;14.104;2023-11-19T00:37:45;101010.00;;;3.44;100.00
3122;BME280;1571;52.524;14.104;2023-11-19T00:40:15;101013.44;;;3.46;100.00
3122;BME280;1571;52.524;14.104;2023-11-19T00:42:45;101010.69;;;3.51;100.00
3122;BME280;1571;52.524;14.104;2023-11-19T00:45:15;101032.03;;;3.40;100.00
3122;BME280;1571;52.524;14.104;2023-11-19T00:47:43;101025.59;;;3.50;100.00
3122;BME280;1571;52.524;14.104;2023-11-19T00:50:12;101028.22;;;3.50;100.00
3122;BME280;1571;52.524;14.104;2023-11-19T00:52:40;101020.03;;;3.61;100.00
3122;BME280;1571;52.524;14.104;2023-11-19T00:55:10;101004.44;;;3.55;100.00
3122;BME280;1571;52.524;14.104;2023-11-19T00:57:40;101010.53;;;3.57;100.00
3122;BME280;1571;52.524;14.104;2023-11-19T01:00:09;100999.50;;;3.44;100.00
3122;BME280;1571;52.524;14.104;2023-11-19T01:02:46;100990.31;;;3.61;100.00
3122;BME280;1571;52.524;14.104;2023-11-19T01:05:18;100978.28;;;3.53;100.00
3122;BME280;1571;52.524;14.104;2023-11-19T01:07:48;100975.44;;;3.60;100.00
3122;BME280;1571;52.524;14.104;2023-11-19T01:10:18;100971.09;;;3.59;100.00
3122;BME280;1571;52.524;14.104;2023-11-19T01:12:47;100961.13;;;3.70;100.00
3122;BME280;1571;52.524;14.104;2023-11-19T01:15:15;100958.25;;;3.49;100.00
3122;BME280;1571;52.524;14.104;2023-11-19T01:17:46;100938.88;;;3.53;100.00
3122;BME280;1571;52.524;14.104;2023-11-19T01:20:17;100928.56;;;3.47;100.00
3122;BME280;1571;52.524;14.104;2023-11-19T01:22:46;100927.97;;;3.67;100.00
3122;BME280;1571;52.524;14.104;2023-11-19T01:25:18;100923.94;;;3.55;100.00
3122;BME280;1571;52.524;14.104;2023-11-19T01:27:47;100902.91;;;3.55;100.00
3122;BME280;1571;52.524;14.104;2023-11-19T01:30:17;100888.06;;;3.56;100.00
3122;BME280;1571;52.524;14.104;2023-11-19T01:32:48;100896.16;;;3.48;100.00
3122;BME280;1571;52.524;14.104;2023-11-19T01:35:17;100892.63;;;3.49;100.00
3122;BME280;1571;52.524;14.104;2023-11-19T01:37:45;100883.50;;;3.61;100.00
3122;BME280;1571;52.524;14.104;2023-11-19T01:40:13;100875.22;;;3.73;100.00
3122;BME280;1571;52.524;14.104;2023-11-19T01:42:43;100877.94;;;3.72;100.00
3122;BME280;1571;52.524;14.104;2023-11-19T01:45:22;100861.69;;;3.59;100.00
3122;BME280;1571;52.524;14.104;2023-11-19T01:47:55;100857.41;;;3.57;100.00
3122;BME280;1571;52.524;14.104;2023-11-19T01:50:23;100856.56;;;3.56;100.00
3122;BME280;1571;52.524;14.104;2023-11-19T01:52:53;100845.56;;;3.43;100.00
3122;BME280;1571;52.524;14.104;2023-11-19T01:55:25;100829.81;;;3.43;100.00
3122;BME280;1571;52.524;14.104;2023-11-19T01:57:59;100823.03;;;3.64;100.00
3122;BME280;1571;52.524;14.104;2023-11-19T02:00:28;100829.41;;;3.55;100.00
3122;BME280;1571;52.524;14.104;2023-11-19T02:02:56;100819.22;;;3.46;100.00
3122;BME280;1571;52.524;14.104;2023-11-19T02:05:25;100812.25;;;3.45;100.00
3122;BME280;1571;52.524;14.104;2023-11-19T02:07:53;100809.00;;;3.37;100.00
3122;BME280;1571;52.524;14.104;2023-11-19T02:10:22;100804.44;;;3.44;100.00
3122;BME280;1571;52.524;14.104;2023-11-19T02:12:52;100796.22;;;3.54;100.00
3122;BME280;1571;52.524;14.104;2023-11-19T02:15:34;100807.63;;;3.53;100.00
3122;BME280;1571;52.524;14.104;2023-11-19T02:18:18;100798.03;;;3.52;100.00
3122;BME280;1571;52.524;14.104;2023-11-19T02:20:47;100785.59;;;3.58;100.00
3122;BME280;1571;52.524;14.104;2023-11-19T02:23:18;100775.56;;;3.70;100.00
3122;BME280;1571;52.524;14.104;2023-11-19T02:25:54;100754.22;;;3.54;100.00
3122;BME280;1571;52.524;14.104;2023-11-19T02:28:26;100735.16;;;3.49;100.00
3122;BME280;1571;52.524;14.104;2023-11-19T02:30:54;100719.47;;;3.46;100.00
3122;BME280;1571;52.524;14.104;2023-11-19T02:33:22;100712.53;;;3.45;100.00
3122;BME280;1571;52.524;14.104;2023-11-19T02:35:52;100713.16;;;3.53;100.00
3122;BME280;1571;52.524;14.104;2023-11-19T02:38:21;100715.97;;;3.47;100.00
3122;BME280;1571;52.524;14.104;2023-11-19T02:40:49;100707.16;;;3.48;100.00
3122;BME280;1571;52.524;14.104;2023-11-19T02:43:17;100703.22;;;3.62;100.00
3122;BME280;1571;52.524;14.104;2023-11-19T02:45:47;100695.38;;;3.60;100.00
3122;BME280;1571;52.524;14.104;2023-11-19T02:48:16;100684.34;;;3.50;100.00
3122;BME280;1571;52.524;14.104;2023-11-19T02:50:44;100666.91;;;3.49;100.00
3122;BME280;1571;52.524;14.104;2023-11-19T02:53:14;100670.41;;;3.48;100.00
3122;BME280;1571;52.524;14.104;2023-11-19T02:55:44;100656.50;;;3.46;100.00
3122;BME280;1571;52.524;14.104;2023-11-19T02:58:17;100657.09;;;3.54;100.00
3122;BME280;1571;52.524;14.104;2023-11-19T03:00:52;100661.53;;;3.52;100.00
3122;BME280;1571;52.524;14.104;2023-11-19T03:03:25;100659.06;;;3.48;100.00
3122;BME280;1571;52.524;14.104;2023-11-19T03:05:58;100645.78;;;3.52;100.00
3122;BME280;1571;52.524;14.104;2023-11-19T03:08:26;100644.41;;;3.67;100.00
3122;BME280;1571;52.524;14.104;2023-11-19T03:10:54;100623.78;;;3.57;100.00
3122;BME280;1571;52.524;14.104;2023-11-19T03:13:22;100634.88;;;3.65;100.00
3122;BME280;1571;52.524;14.104;2023-11-19T03:15:52;100636.38;;;3.72;100.00
3122;BME280;1571;52.524;14.104;2023-11-19T03:18:22;100633.91;;;3.67;100.00
3122;BME280;1571;52.524;14.104;2023-11-19T03:20:50;100627.47;;;3.76;100.00
3122;BME280;1571;52.524;14.104;2023-11-19T03:23:19;100615.88;;;3.82;100.00
3122;BME280;1571;52.524;14.104;2023-11-19T03:25:47;100609.00;;;3.78;100.00
3122;BME280;1571;52.524;14.104;2023-11-19T03:28:16;100608.34;;;3.72;100.00
3122;BME280;1571;52.524;14.104;2023-11-19T03:30:44;100597.25;;;3.64;100.00
3122;BME280;1571;52.524;14.104;2023-11-19T03:33:14;100599.47;;;3.75;100.00
3122;BME280;1571;52.524;14.104;2023-11-19T03:35:42;100587.19;;;3.75;100.00
3122;BME280;1571;52.524;14.104;2023-11-19T03:38:10;100592.69;;;3.69;100.00
3122;BME280;1571;52.524;14.104;2023-11-19T03:40:39;100596.91;;;3.73;100.00
3122;BME280;1571;52.524;14.104;2023-11-19T03:43:07;100590.25;;;3.88;100.00
3122;BME280;1571;52.524;14.104;2023-11-19T03:45:36;100583.44;;;3.83;100.00
3122;BME280;1571;52.524;14.104;2023-11-19T03:48:07;100580.09;;;3.79;99.99
3122;BME280;1571;52.524;14.104;2023-11-19T03:50:36;100576.13;;;3.91;100.00
3122;BME280;1571;52.524;14.104;2023-11-19T03:53:05;100572.25;;;3.78;100.00
3122;BME280;1571;52.524;14.104;2023-11-19T03:55:34;100566.44;;;3.93;99.82
3122;BME280;1571;52.524;14.104;2023-11-19T03:58:02;100564.78;;;3.90;99.54
3122;BME280;1571;52.524;14.104;2023-11-19T04:00:32;100559.47;;;3.92;99.55
3122;BME280;1571;52.524;14.104;2023-11-19T04:03:00;100548.34;;;3.85;99.79
3122;BME280;1571;52.524;14.104;2023-11-19T04:05:28;100544.91;;;3.83;100.00
3122;BME280;1571;52.524;14.104;2023-11-19T04:07:58;100541.28;;;3.87;99.90
3122;BME280;1571;52.524;14.104;2023-11-19T04:10:26;100530.84;;;3.84;100.00
3122;BME280;1571;52.524;14.104;2023-11-19T04:12:56;100525.50;;;3.87;99.85
3122;BME280;1571;52.524;14.104;2023-11-19T04:15:24;100512.38;;;3.87;100.00
3122;BME280;1571;52.524;14.104;2023-11-19T04:17:53;100484.56;;;3.82;100.00
3122;BME280;1571;52.524;14.104;2023-11-19T04:20:21;100476.34;;;3.91;100.00
3122;BME280;1571;52.524;14.104;2023-11-19T04:22:50;100472.19;;;3.85;100.00
3122;BME280;1571;52.524;14.104;2023-11-19T04:25:19;100463.59;;;3.80;100.00
3122;BME280;1571;52.524;14.104;2023-11-19T04:27:50;100462.03;;;3.76;100.00
3122;BME280;1571;52.524;14.104;2023-11-19T04:30:18;100459.75;;;3.67;100.00
3122;BME280;1571;52.524;14.104;2023-11-19T04:32:47;100449.38;;;3.64;100.00
3122;BME280;1571;52.524;14.104;2023-11-19T04:35:16;100437.97;;;3.65;100.00
3122;BME280;1571;52.524;14.104;2023-11-19T04:37:46;100432.59;;;3.68;100.00
3122;BME280;1571;52.524;14.104;2023-11-19T04:40:14;100424.50;;;3.74;100.00
3122;BME280;1571;52.524;14.104;2023-11-19T04:42:46;100412.97;;;3.54;100.00
3122;BME280;1571;52.524;14.104;2023-11-19T04:45:15;100410.75;;;3.44;100.00
3122;BME280;1571;52.524;14.104;2023-11-19T04:47:43;100415.25;;;3.64;100.00
3122;BME280;1571;52.524;14.104;2023-11-19T04:50:11;100410.00;;;3.64;100.00
3122;BME280;1571;52.524;14.104;2023-11-19T04:52:40;100407.50;;;3.61;100.00
3122;BME280;1571;52.524;14.104;2023-11-19T04:55:09;100396.56;;;3.49;100.00
3122;BME280;1571;52.524;14.104;2023-11-19T04:57:39;100387.81;;;3.49;100.00
3122;BME280;1571;52.524;14.104;2023-11-19T05:00:10;100392.66;;;3.60;100.00
3122;BME280;1571;52.524;14.104;2023-11-19T05:02:42;100383.75;;;3.64;100.00
3122;BME280;1571;52.524;14.104;2023-11-19T05:05:11;100381.47;;;3.54;100.00
3122;BME280;1571;52.524;14.104;2023-11-19T05:07:39;100374.69;;;3.49;100.00
3122;BME280;1571;52.524;14.104;2023-11-19T05:10:08;100374.63;;;3.50;100.00
3122;BME280;1571;52.524;14.104;2023-11-19T05:12:37;100379.00;;;3.51;100.00
3122;BME280;1571;52.524;14.104;2023-11-19T05:15:06;100363.09;;;3.54;100.00
3122;BME280;1571;52.524;14.104;2023-11-19T05:17:36;100366.75;;;3.50;100.00
3122;BME280;1571;52.524;14.104;2023-11-19T05:20:05;100366.81;;;3.49;100.00
3122;BME280;1571;52.524;14.104;2023-11-19T05:22:40;100366.81;;;3.71;100.00
3122;BME280;1571;52.524;14.104;2023-11-19T05:25:09;100357.16;;;3.71;100.00
3122;BME280;1571;52.524;14.104;2023-11-19T05:27:38;100354.25;;;3.79;100.00
3122;BME280;1571;52.524;14.104;2023-11-19T05:30:07;100346.63;;;3.73;100.00
3122;BME280;1571;52.524;14.104;2023-11-19T05:32:38;100345.13;;;3.67;100.00
3122;BME280;1571;52.524;14.104;2023-11-19T05:35:07;100344.38;;;3.64;100.00
3122;BME280;1571;52.524;14.104;2023-11-19T05:37:36;100340.94;;;3.62;100.00
3122;BME280;1571;52.524;14.104;2023-11-19T05:40:06;100339.13;;;3.64;100.00
3122;BME280;1571;52.524;14.104;2023-11-19T05:42:41;100334.09;;;3.58;100.00
3122;BME280;1571;52.524;14.104;2023-11-19T05:45:11;100330.69;;;3.55;100.00
3122;BME280;1571;52.524;14.104;2023-11-19T05:47:41;100325.09;;;3.65;100.00
3122;BME280;1571;52.524;14.104;2023-11-19T05:50:11;100314.25;;;3.72;100.00
3122;BME280;1571;52.524;14.104;2023-11-19T05:52:39;100314.31;;;3.71;100.00
3122;BME280;1571;52.524;14.104;2023-11-19T05:55:07;100293.59;;;3.65;100.00
3122;BME280;1571;52.524;14.104;2023-11-19T05:57:38;100284.00;;;3.64;100.00
3122;BME280;1571;52.524;14.104;2023-11-19T06:00:10;100283.56;;;3.74;100.00
3122;BME280;1571;52.524;14.104;2023-11-19T06:02:41;100288.19;;;3.68;100.00
3122;BME280;1571;52.524;14.104;2023-11-19T06:05:10;100287.34;;;3.67;100.00
3122;BME280;1571;52.524;14.104;2023-11-19T06:07:38;100283.19;;;3.62;100.00
3122;BME280;1571;52.524;14.104;2023-11-19T06:10:09;100284.78;;;3.66;100.00
3122;BME280;1571;52.524;14.104;2023-11-19T06:12:38;100290.09;;;3.64;100.00
3122;BME280;1571;52.524;14.104;2023-11-19T06:15:09;100279.66;;;3.63;100.00
3122;BME280;1571;52.524;14.104;2023-11-19T06:17:37;100275.56;;;3.55;100.00
3122;BME280;1571;52.524;14.104;2023-11-19T06:20:08;100268.19;;;3.43;100.00
3122;BME280;1571;52.524;14.104;2023-11-19T06:22:39;100265.34;;;3.49;100.00
3122;BME280;1571;52.524;14.104;2023-11-19T06:25:09;100278.75;;;3.64;100.00
3122;BME280;1571;52.524;14.104;2023-11-19T06:27:38;100273.88;;;3.54;100.00
3122;BME280;1571;52.524;14.104;2023-11-19T06:30:07;100263.78;;;3.66;100.00
3122;BME280;1571;52.524;14.104;2023-11-19T06:32:36;100258.38;;;3.69;100.00
3122;BME280;1571;52.524;14.104;2023-11-19T06:35:06;100263.91;;;3.63;100.00
3122;BME280;1571;52.524;14.104;2023-11-19T06:37:35;100245.34;;;3.67;100.00
3122;BME280;1571;52.524;14.104;2023-11-19T06:40:04;100257.94;;;3.59;100.00
3122;BME280;1571;52.524;14.104;2023-11-19T06:42:33;100254.22;;;3.65;100.00
3122;BME280;1571;52.524;14.104;2023-11-19T06:45:01;100253.03;;;3.72;100.00
3122;BME280;1571;52.524;14.104;2023-11-19T06:47:30;100248.28;;;3.80;100.00
3122;BME280;1571;52.524;14.104;2023-11-19T06:49:58;100253.09;;;3.91;100.00
3122;BME280;1571;52.524;14.104;2023-11-19T06:52:28;100253.44;;;3.83;100.00
3122;BME280;1571;52.524;14.104;2023-11-19T06:54:58;100258.09;;;3.77;100.00
3122;BME280;1571;52.524;14.104;2023-11-19T06:57:29;100242.13;;;3.81;100.00
3122;BME280;1571;52.524;14.104;2023-11-19T06:59:59;100233.53;;;3.78;100.00
3122;BME280;1571;52.524;14.104;2023-11-19T07:02:28;100230.00;;;3.79;100.00
3122;BME280;1571;52.524;14.104;2023-11-19T07:04:56;100221.63;;;3.69;100.00
3122;BME280;1571;52.524;14.104;2023-11-19T07:07:25;100219.56;;;3.77;100.00
3122;BME280;1571;52.524;14.104;2023-11-19T07:09:54;100213.16;;;3.83;100.00
3122;BME280;1571;52.524;14.104;2023-11-19T07:12:23;100215.47;;;3.90;100.00
3122;BME280;1571;52.524;14.104;2023-11-19T07:14:53;100210.69;;;4.00;100.00
3122;BME280;1571;52.524;14.104;2023-11-19T07:17:22;100204.25;;;3.87;100.00
3122;BME280;1571;52.524;14.104;2023-11-19T07:19:52;100202.09;;;3.76;100.00
3122;BME280;1571;52.524;14.104;2023-11-19T07:22:20;100201.56;;;3.88;100.00
3122;BME280;1571;52.524;14.104;2023-11-19T07:24:48;100199.88;;;3.87;100.00
3122;BME280;1571;52.524;14.104;2023-11-19T07:27:18;100187.50;;;3.89;100.00
3122;BME280;1571;52.524;14.104;2023-11-19T07:29:47;100182.13;;;3.92;100.00
3122;BME280;1571;52.524;14.104;2023-11-19T07:32:15;100186.56;;;4.11;100.00
3122;BME280;1571;52.524;14.104;2023-11-19T07:34:44;100185.53;;;3.94;100.00
3122;BME280;1571;52.524;14.104;2023-11-19T07:37:12;100185.13;;;4.04;100.00
3122;BME280;1571;52.524;14.104;2023-11-19T07:39:40;100185.56;;;4.13;100.00
3122;BME280;1571;52.524;14.104;2023-11-19T07:42:09;100186.41;;;4.14;100.00
3122;BME280;1571;52.524;14.104;2023-11-19T07:44:39;100203.75;;;4.18;100.00
3122;BME280;1571;52.524;14.104;2023-11-19T07:47:07;100197.88;;;4.13;100.00
3122;BME280;1571;52.524;14.104;2023-11-19T07:49:35;100205.38;;;4.21;100.00
3122;BME280;1571;52.524;14.104;2023-11-19T07:52:04;100208.34;;;4.33;100.00
3122;BME280;1571;52.524;14.104;2023-11-19T07:54:48;100207.50;;;4.33;100.00
3122;BME280;1571;52.524;14.104;2023-11-19T07:57:16;100195.59;;;4.24;100.00
3122;BME280;1571;52.524;14.104;2023-11-19T07:59:46;100190.56;;;4.20;100.00
3122;BME280;1571;52.524;14.104;2023-11-19T08:02:15;100184.16;;;4.25;100.00
3122;BME280;1571;52.524;14.104;2023-11-19T08:04:43;100191.13;;;4.26;100.00
3122;BME280;1571;52.524;14.104;2023-11-19T08:07:13;100189.88;;;4.35;100.00
3122;BME280;1571;52.524;14.104;2023-11-19T08:09:41;100182.84;;;4.35;100.00
3122;BME280;1571;52.524;14.104;2023-11-19T08:12:09;100189.25;;;4.49;100.00
3122;BME280;1571;52.524;14.104;2023-11-19T08:14:38;100177.94;;;4.47;100.00
3122;BME280;1571;52.524;14.104;2023-11-19T08:17:07;100179.13;;;4.58;100.00
3122;BME280;1571;52.524;14.104;2023-11-19T08:19:36;100181.94;;;4.55;100.00
3122;BME280;1571;52.524;14.104;2023-11-19T08:22:04;100182.41;;;4.64;100.00
3122;BME280;1571;52.524;14.104;2023-11-19T08:24:32;100172.09;;;4.59;100.00
3122;BME280;1571;52.524;14.104;2023-11-19T08:27:00;100167.50;;;4.64;100.00
3122;BME280;1571;52.524;14.104;2023-11-19T08:29:29;100163.78;;;4.68;100.00
3122;BME280;1571;52.524;14.104;2023-11-19T08:31:59;100167.19;;;4.70;100.00
3122;BME280;1571;52.524;14.104;2023-11-19T08:34:30;100169.25;;;4.83;100.00
3122;BME280;1571;52.524;14.104;2023-11-19T08:36:59;100178.78;;;4.85;100.00
3122;BME280;1571;52.524;14.104;2023-11-19T08:39:27;100168.03;;;4.90;100.00
3122;BME280;1571;52.524;14.104;2023-11-19T08:41:55;100163.94;;;4.84;100.00
3122;BME280;1571;52.524;14.104;2023-11-19T08:44:24;100150.06;;;4.80;100.00
3122;BME280;1571;52.524;14.104;2023-11-19T08:46:52;100157.00;;;4.82;100.00
3122;BME280;1571;52.524;14.104;2023-11-19T08:49:20;100154.25;;;4.85;100.00
3122;BME280;1571;52.524;14.104;2023-11-19T08:51:51;100152.88;;;4.95;100.00
3122;BME280;1571;52.524;14.104;2023-11-19T08:54:19;100150.56;;;4.89;100.00
3122;BME280;1571;52.524;14.104;2023-11-19T08:56:49;100151.56;;;5.04;100.00
3122;BME280;1571;52.524;14.104;2023-11-19T08:59:18;100147.16;;;5.04;100.00
3122;BME280;1571;52.524;14.104;2023-11-19T09:01:47;100141.59;;;5.10;100.00
3122;BME280;1571;52.524;14.104;2023-11-19T09:04:15;100139.59;;;5.33;100.00
3122;BME280;1571;52.524;14.104;2023-11-19T09:06:43;100138.75;;;5.32;100.00
3122;BME280;1571;52.524;14.104;2023-11-19T09:09:13;100135.66;;;5.41;100.00
3122;BME280;1571;52.524;14.104;2023-11-19T09:11:41;100122.34;;;5.45;100.00
3122;BME280;1571;52.524;14.104;2023-11-19T09:14:10;100109.72;;;5.51;100.00
3122;BME280;1571;52.524;14.104;2023-11-19T09:16:38;100103.75;;;5.48;100.00
3122;BME280;1571;52.524;14.104;2023-11-19T09:19:06;100105.91;;;5.57;100.00
3122;BME280;1571;52.524;14.104;2023-11-19T09:21:35;100117.41;;;5.72;100.00
3122;BME280;1571;52.524;14.104;2023-11-19T09:24:06;100114.78;;;5.72;100.00
3122;BME280;1571;52.524;14.104;2023-11-19T09:26:36;100097.84;;;5.60;100.00
3122;BME280;1571;52.524;14.104;2023-11-19T09:29:08;100118.69;;;5.64;100.00
3122;BME280;1571;52.524;14.104;2023-11-19T09:31:38;100120.53;;;5.62;100.00
3122;BME280;1571;52.524;14.104;2023-11-19T09:34:06;100122.00;;;5.68;100.00
3122;BME280;1571;52.524;14.104;2023-11-19T09:36:34;100116.97;;;5.81;100.00
3122;BME280;1571;52.524;14.104;2023-11-19T09:39:03;100129.72;;;5.89;100.00
3122;BME280;1571;52.524;14.104;2023-11-19T09:41:32;100123.94;;;5.99;100.00
3122;BME280;1571;52.524;14.104;2023-11-19T09:44:03;100129.78;;;6.04;100.00
3122;BME280;1571;52.524;14.104;2023-11-19T09:46:32;100125.03;;;6.11;100.00
3122;BME280;1571;52.524;14.104;2023-11-19T09:49:02;100132.69;;;6.16;100.00
3122;BME280;1571;52.524;14.104;2023-11-19T09:51:31;100130.63;;;6.05;100.00
3122;BME280;1571;52.524;14.104;2023-11-19T09:54:00;100128.25;;;6.00;100.00
3122;BME280;1571;52.524;14.104;2023-11-19T09:56:29;100121.72;;;6.23;100.00
3122;BME280;1571;52.524;14.104;2023-11-19T09:58:58;100131.38;;;6.40;100.00
3122;BME280;1571;52.524;14.104;2023-11-19T10:01:28;100116.56;;;6.54;100.00
3122;BME280;1571;52.524;14.104;2023-11-19T10:03:59;100094.19;;;6.61;100.00
3122;BME280;1571;52.524;14.104;2023-11-19T10:06:29;100085.22;;;6.79;100.00
3122;BME280;1571;52.524;14.104;2023-11-19T10:08:57;100093.72;;;7.00;100.00
3122;BME280;1571;52.524;14.104;2023-11-19T10:11:26;100080.09;;;7.22;100.00
3122;BME280;1571;52.524;14.104;2023-11-19T10:13:55;100076.81;;;7.19;100.00
3122;BME280;1571;52.524;14.104;2023-11-19T10:16:29;100065.78;;;7.26;100.00
3122;BME280;1571;52.524;14.104;2023-11-19T10:18:59;100054.94;;;7.31;100.00
3122;BME280;1571;52.524;14.104;2023-11-19T10:21:28;100074.09;;;7.35;100.00
3122;BME280;1571;52.524;14.104;2023-11-19T10:23:59;100067.09;;;7.34;100.00
3122;BME280;1571;52.524;14.104;2023-11-19T10:26:28;100054.09;;;7.30;100.00
3122;BME280;1571;52.524;14.104;2023-11-19T10:28:56;100059.59;;;7.42;100.00
3122;BME280;1571;52.524;14.104;2023-11-19T10:31:25;100050.06;;;7.54;100.00
3122;BME280;1571;52.524;14.104;2023-11-19T10:33:55;100055.38;;;7.82;100.00
3122;BME280;1571;52.524;14.104;2023-11-19T10:36:37;100041.69;;;7.76;100.00
3122;BME280;1571;52.524;14.104;2023-11-19T10:39:06;100041.69;;;7.76;100.00
3122;BME280;1571;52.524;14.104;2023-11-19T10:41:36;100043.66;;;7.72;100.00
3122;BME280;1571;52.524;14.104;2023-11-19T10:44:04;100036.00;;;7.96;100.00
3122;BME280;1571;52.524;14.104;2023-11-19T10:46:37;100033.84;;;7.74;100.00
3122;BME280;1571;52.524;14.104;2023-11-19T10:49:08;100041.00;;;8.01;100.00
3122;BME280;1571;52.524;14.104;2023-11-19T10:51:37;100027.31;;;7.94;100.00
3122;BME280;1571;52.524;14.104;2023-11-19T10:54:10;100018.63;;;7.92;100.00
3122;BME280;1571;52.524;14.104;2023-11-19T10:56:41;100024.69;;;7.94;100.00
3122;BME280;1571;52.524;14.104;2023-11-19T10:59:11;100017.13;;;8.02;100.00
3122;BME280;1571;52.524;14.104;2023-11-19T11:01:45;100012.19;;;8.10;100.00
3122;BME280;1571;52.524;14.104;2023-11-19T11:04:22;100001.75;;;8.22;100.00
3122;BME280;1571;52.524;14.104;2023-11-19T11:06:51;100006.22;;;8.21;100.00
3122;BME280;1571;52.524;14.104;2023-11-19T11:09:22;99999.28;;;8.33;100.00
3122;BME280;1571;52.524;14.104;2023-11-19T11:11:51;99995.66;;;8.48;100.00
3122;BME280;1571;52.524;14.104;2023-11-19T11:14:21;99996.38;;;8.78;100.00
3122;BME280;1571;52.524;14.104;2023-11-19T11:16:51;99997.88;;;8.82;100.00
3122;BME280;1571;52.524;14.104;2023-11-19T11:19:22;100007.63;;;8.81;100.00
3122;BME280;1571;52.524;14.104;2023-11-19T11:21:53;100003.41;;;8.79;100.00
3122;BME280;1571;52.524;14.104;2023-11-19T11:24:41;100009.94;;;8.73;100.00
3122;BME280;1571;52.524;14.104;2023-11-19T11:27:32;100007.63;;;8.81;100.00
3122;BME280;1571;52.524;14.104;2023-11-19T11:30:11;100007.97;;;8.89;100.00
3122;BME280;1571;52.524;14.104;2023-11-19T11:32:47;100013.97;;;8.91;100.00
3122;BME280;1571;52.524;14.104;2023-11-19T11:35:30;100016.53;;;8.93;100.00
3122;BME280;1571;52.524;14.104;2023-11-19T11:38:06;100019.13;;;9.20;100.00
3122;BME280;1571;52.524;14.104;2023-11-19T11:40:35;100019.47;;;9.28;100.00
3122;BME280;1571;52.524;14.104;2023-11-19T11:43:03;100021.69;;;9.34;100.00
3122;BME280;1571;52.524;14.104;2023-11-19T11:45:36;100027.19;;;9.44;100.00
3122;BME280;1571;52.524;14.104;2023-11-19T11:48:15;100019.97;;;9.59;100.00
3122;BME280;1571;52.524;14.104;2023-11-19T11:50:56;100003.31;;;9.70;100.00
3122;BME280;1571;52.524;14.104;2023-11-19T11:53:25;100003.53;;;9.79;100.00
3122;BME280;1571;52.524;14.104;2023-11-19T11:55:58;99996.44;;;9.67;100.00
3122;BME280;1571;52.524;14.104;2023-11-19T11:58:35;100007.78;;;9.69;100.00
3122;BME280;1571;52.524;14.104;2023-11-19T12:01:05;100004.28;;;9.69;100.00
3122;BME280;1571;52.524;14.104;2023-11-19T12:03:37;100007.22;;;9.90;100.00
3122;BME280;1571;52.524;14.104;2023-11-19T12:06:07;100001.66;;;10.06;100.00
3122;BME280;1571;52.524;14.104;2023-11-19T12:08:36;100000.44;;;10.23;100.00
3122;BME280;1571;52.524;14.104;2023-11-19T12:11:07;99994.31;;;10.46;100.00
3122;BME280;1571;52.524;14.104;2023-11-19T12:13:47;99993.44;;;10.58;100.00
3122;BME280;1571;52.524;14.104;2023-11-19T12:16:16;99978.19;;;10.49;100.00
3122;BME280;1571;52.524;14.104;2023-11-19T12:18:44;99987.50;;;10.55;100.00
3122;BME280;1571;52.524;14.104;2023-11-19T12:21:28;99981.88;;;10.71;100.00
3122;BME280;1571;52.524;14.104;2023-11-19T12:23:58;99976.81;;;10.68;100.00
3122;BME280;1571;52.524;14.104;2023-11-19T12:26:38;99961.66;;;10.81;100.00
3122;BME280;1571;52.524;14.104;2023-11-19T12:29:06;99948.53;;;11.02;100.00
3122;BME280;1571;52.524;14.104;2023-11-19T12:31:36;99947.72;;;11.13;100.00
3122;BME280;1571;52.524;14.104;2023-11-19T12:34:07;99939.97;;;11.10;100.00
3122;BME280;1571;52.524;14.104;2023-11-19T12:36:41;99926.69;;;11.21;100.00
3122;BME280;1571;52.524;14.104;2023-11-19T12:39:10;99933.72;;;11.11;100.00
3122;BME280;1571;52.524;14.104;2023-11-19T12:41:50;99931.25;;;10.96;100.00
3122;BME280;1571;52.524;14.104;2023-11-19T12:44:19;99929.69;;;10.94;100.00
3122;BME280;1571;52.524;14.104;2023-11-19T12:47:01;99925.00;;;10.97;100.00
3122;BME280;1571;52.524;14.104;2023-11-19T12:49:30;99926.31;;;11.03;100.00
3122;BME280;1571;52.524;14.104;2023-11-19T12:52:00;99927.66;;;10.97;100.00
3122;BME280;1571;52.524;14.104;2023-11-19T12:54:32;99930.56;;;10.94;100.00
3122;BME280;1571;52.524;14.104;2023-11-19T12:57:01;99937.63;;;10.82;100.00
3122;BME280;1571;52.524;14.104;2023-11-19T12:59:29;99941.63;;;10.88;100.00
3122;BME280;1571;52.524;14.104;2023-11-19T13:01:58;99928.38;;;10.99;100.00
3122;BME280;1571;52.524;14.104;2023-11-19T13:04:28;99921.16;;;11.01;100.00
3122;BME280;1571;52.524;14.104;2023-11-19T13:06:58;99930.91;;;11.01;100.00
3122;BME280;1571;52.524;14.104;2023-11-19T13:09:30;99922.22;;;10.99;100.00
3122;BME280;1571;52.524;14.104;2023-11-19T13:11:59;99927.38;;;10.89;100.00
3122;BME280;1571;52.524;14.104;2023-11-19T13:14:40;99931.75;;;10.90;100.00